Sandy, OR

5:37 AM PST on December 28, 2014 (GMT -0800)
Davis St - Gary St. | Change Station
CLOSE
Current Station
Personal Weather Station
Location: Sandy, OR
Elevation: 1037 ft
Nearby Weather Stations
Active Advisory: Special Statement

Elev 1037 ft 45.39 °N, 122.25 °W | Updated 5 minutes ago

Rain
Rain
39.0 °F
Feels Like 36 °F
N
4.2
Wind Variable Wind from SW

Today
High -- | Low -- °F
--% Chance of Precip.
Yesterday
High -- | Low -- °F
Precip. -- in
7:48 AM 4:33 PM
Waxing Crescent, 48% visible
Pressure 30.23 in
Visibility 10.0 miles
Clouds Scattered Clouds 3100 ft
Mostly Cloudy 6500 ft
Overcast 10000 ft
Windchill 36 °F
Dew Point 39 °F
Humidity 99%
Rainfall 0.07 in
Snow Depth Not available.
UV 0 out of 12
Pollen .20 out of 12
Air Quality Not available.
Flu Activity Not available.
METAR KTTD 281253Z AUTO 27005KT 10SM SCT031 BKN065 OVC100 07/04 A3023 RMK AO2 SLP235 T00670044

More Conditions Fewer Conditions

Pressure 30.23 in
Visibility 10.0 miles
Clouds Scattered Clouds 3100 ft
Mostly Cloudy 6500 ft
Overcast 10000 ft
Windchill 36 °F
Dew Point 39 °F
Humidity 99%
Rainfall 0.07 in
Snow Depth Not available.
UV 0 out of 12
Pollen .20 out of 12
Air Quality Not available.
Flu Activity Not available.
METAR KTTD 281253Z AUTO 27005KT 10SM SCT031 BKN065 OVC100 07/04 A3023 RMK AO2 SLP235 T00670044

More Conditions Fewer Conditions

10-Day Weather Forecast

Almanac

Astronomy

Dec. 28, 2014 Rise Set
Actual Time
Civil Twilight
Nautical Twilight
Astronomical Twilight
Moon
Length of Visible Light
Length of Day
Tomorrow will be .
, % of the Moon is Illuminated

Today's Extremes

State Highs State Lows

Community

WunderPhotos

Upload Photos

1,781,263 photos uploaded!

WunderBlogs® & News

Nearby

Air Quality

  Air Quality AQ Index Pollutant
Not available.

Snow Depth

Station Depth Elevation

Earthquake Activity

City Distance Mag. Time & Date
Minimum magnitude displayed is 2.5.

Coastal Water Temperatures

Place Temperature

Nearby Weather Stations